Duluth International Airport
KDLH : now visible

Airfield :











YOU CAN JOIN US ON...

 
LOGIN :

Register | Disclaimer

   EN    FR    IT 

 









Legend :    VFR   Marginal VFR   IFR   Intensive IFR   Very Intensive IFR
Visi :
Ceiling :
>= 8 km
>= 3000ft
5 to 8 km
1000 to 3000 ft
1500m to 5 km
500 to 1000 ft
800 to 1500m
200 to 500 ft
< 800m
< 200 ft
Symbols :   Thunderstorms  Fog  Heavy snow  Heavy precipitations  Wind > 20 kt






- Airport Elevation : 1428 ft
- IATA code : DLH


KDLH - Duluth International

CURRENT METAR :
  • 230055Z 24017G24KT 10SM CLR M04/M08 A2988 RMK AO2 SLP146 T10441083

EXPIRED METARs :
  • 222355Z 23011KT 10SM CLR M04/M08 A2991 RMK AO2 SLP157 T10441078 11017 21044 58024
  • 222255Z 22010KT 10SM FEW120 M04/M08 A2994 RMK AO2 SLP165 T10391078

TAF KDLH
Valid from the 23 at 00:00 until the 24 at 00:00 UTC


222340Z 2300/2324 23013G17KT P6SM SCT150
FM230300 24012G21KT P6SM SCT150 WS015/25040KT
FM231000 25010KT P6SM FEW100
FM231500 27008G16KT P6SM FEW250
FM232200 28009KT P6SM SCT050 BKN100



MET'MAP, your aeronautical weather chart ! - Copyright ORBIFLY December 2007 - Disclaimer

ORBIFLY MET'MAP TEAM :

Programming & Development : Alexandra Zaïnal
Concept & Development : Baudouin d'Aumeries
Co-Development & Prog : Marc-Olivier Méhu
Technical & hardware support : Manuel Goepfert

Contact : metmap@orbifly.com




SOURCES & CREDITS :

   NOAA       Earth
Advisory